sensor_id;sensor_type;location;lat;lon;timestamp;P1;durP1;ratioP1;P2;durP2;ratioP2
55641;SDS011;41509;53.108;6.100;2023-08-01T00:02:07;5.53;;;2.28;;
55641;SDS011;41509;53.108;6.100;2023-08-01T00:04:33;7.20;;;2.47;;
55641;SDS011;41509;53.108;6.100;2023-08-01T00:06:58;6.97;;;2.08;;
55641;SDS011;41509;53.108;6.100;2023-08-01T00:09:27;4.10;;;2.00;;
55641;SDS011;41509;53.108;6.100;2023-08-01T00:11:52;4.90;;;2.33;;
55641;SDS011;41509;53.108;6.100;2023-08-01T00:14:19;7.15;;;2.20;;
55641;SDS011;41509;53.108;6.100;2023-08-01T00:16:49;5.95;;;2.22;;
55641;SDS011;41509;53.108;6.100;2023-08-01T00:19:18;4.05;;;2.85;;
55641;SDS011;41509;53.108;6.100;2023-08-01T00:21:43;5.30;;;2.58;;
55641;SDS011;41509;53.108;6.100;2023-08-01T00:24:09;7.22;;;2.42;;
55641;SDS011;41509;53.108;6.100;2023-08-01T00:26:35;4.55;;;2.50;;
55641;SDS011;41509;53.108;6.100;2023-08-01T00:29:01;5.65;;;2.45;;
55641;SDS011;41509;53.108;6.100;2023-08-01T00:31:26;6.28;;;2.78;;
55641;SDS011;41509;53.108;6.100;2023-08-01T00:33:52;11.15;;;2.50;;
55641;SDS011;41509;53.108;6.100;2023-08-01T00:36:18;5.93;;;2.03;;
55641;SDS011;41509;53.108;6.100;2023-08-01T00:38:43;4.18;;;2.22;;
55641;SDS011;41509;53.108;6.100;2023-08-01T00:41:09;5.88;;;2.72;;
55641;SDS011;41509;53.108;6.100;2023-08-01T00:43:35;7.93;;;2.50;;
55641;SDS011;41509;53.108;6.100;2023-08-01T00:46:03;7.38;;;1.90;;
55641;SDS011;41509;53.108;6.100;2023-08-01T00:48:33;5.72;;;2.58;;
55641;SDS011;41509;53.108;6.100;2023-08-01T00:51:05;6.72;;;1.98;;
55641;SDS011;41509;53.108;6.100;2023-08-01T00:53:32;7.22;;;2.60;;
55641;SDS011;41509;53.108;6.100;2023-08-01T00:55:58;6.47;;;2.60;;
55641;SDS011;41509;53.108;6.100;2023-08-01T00:58:24;5.03;;;2.45;;
55641;SDS011;41509;53.108;6.100;2023-08-01T01:00:50;7.47;;;2.65;;
55641;SDS011;41509;53.108;6.100;2023-08-01T01:03:16;6.30;;;2.65;;
55641;SDS011;41509;53.108;6.100;2023-08-01T01:06:25;8.43;;;2.05;;
55641;SDS011;41509;53.108;6.100;2023-08-01T01:08:31;6.47;;;2.85;;
55641;SDS011;41509;53.108;6.100;2023-08-01T01:10:56;6.00;;;2.25;;
55641;SDS011;41509;53.108;6.100;2023-08-01T01:13:22;7.85;;;2.35;;
55641;SDS011;41509;53.108;6.100;2023-08-01T01:15:48;5.60;;;2.35;;
55641;SDS011;41509;53.108;6.100;2023-08-01T01:18:13;5.45;;;2.38;;
55641;SDS011;41509;53.108;6.100;2023-08-01T01:20:39;4.45;;;2.25;;
55641;SDS011;41509;53.108;6.100;2023-08-01T01:23:05;6.38;;;1.92;;
55641;SDS011;41509;53.108;6.100;2023-08-01T01:25:33;7.38;;;2.53;;
55641;SDS011;41509;53.108;6.100;2023-08-01T01:27:59;3.95;;;1.85;;
55641;SDS011;41509;53.108;6.100;2023-08-01T01:30:28;7.43;;;2.08;;
55641;SDS011;41509;53.108;6.100;2023-08-01T01:35:20;5.57;;;2.50;;
55641;SDS011;41509;53.108;6.100;2023-08-01T01:37:46;6.68;;;2.45;;
55641;SDS011;41509;53.108;6.100;2023-08-01T01:40:12;4.43;;;1.90;;
55641;SDS011;41509;53.108;6.100;2023-08-01T01:42:37;8.13;;;1.92;;
55641;SDS011;41509;53.108;6.100;2023-08-01T01:45:03;9.25;;;2.33;;
55641;SDS011;41509;53.108;6.100;2023-08-01T01:47:29;7.00;;;2.60;;
55641;SDS011;41509;53.108;6.100;2023-08-01T01:49:55;6.10;;;2.25;;
55641;SDS011;41509;53.108;6.100;2023-08-01T01:52:20;6.28;;;1.98;;
55641;SDS011;41509;53.108;6.100;2023-08-01T01:54:46;5.13;;;2.00;;
55641;SDS011;41509;53.108;6.100;2023-08-01T01:57:12;5.15;;;2.38;;
55641;SDS011;41509;53.108;6.100;2023-08-01T01:59:37;4.78;;;2.20;;
55641;SDS011;41509;53.108;6.100;2023-08-01T02:02:03;8.13;;;2.38;;
55641;SDS011;41509;53.108;6.100;2023-08-01T02:04:29;5.47;;;2.70;;
55641;SDS011;41509;53.108;6.100;2023-08-01T02:06:55;7.70;;;2.75;;
55641;SDS011;41509;53.108;6.100;2023-08-01T02:09:21;3.85;;;2.17;;
55641;SDS011;41509;53.108;6.100;2023-08-01T02:11:47;4.97;;;2.47;;
55641;SDS011;41509;53.108;6.100;2023-08-01T02:14:13;6.35;;;1.90;;
55641;SDS011;41509;53.108;6.100;2023-08-01T02:16:38;5.18;;;2.00;;
55641;SDS011;41509;53.108;6.100;2023-08-01T02:19:04;9.88;;;3.05;;
55641;SDS011;41509;53.108;6.100;2023-08-01T02:21:30;6.63;;;2.30;;
55641;SDS011;41509;53.108;6.100;2023-08-01T02:23:55;7.45;;;2.90;;
55641;SDS011;41509;53.108;6.100;2023-08-01T02:26:21;6.55;;;2.38;;
55641;SDS011;41509;53.108;6.100;2023-08-01T02:28:49;6.18;;;2.97;;
55641;SDS011;41509;53.108;6.100;2023-08-01T02:31:15;6.78;;;2.83;;
55641;SDS011;41509;53.108;6.100;2023-08-01T02:33:41;10.48;;;2.42;;
55641;SDS011;41509;53.108;6.100;2023-08-01T02:36:09;8.75;;;3.17;;
55641;SDS011;41509;53.108;6.100;2023-08-01T02:38:38;11.23;;;2.97;;
55641;SDS011;41509;53.108;6.100;2023-08-01T02:41:04;9.00;;;2.70;;
55641;SDS011;41509;53.108;6.100;2023-08-01T02:43:29;9.13;;;3.33;;
55641;SDS011;41509;53.108;6.100;2023-08-01T02:45:55;7.97;;;3.50;;
55641;SDS011;41509;53.108;6.100;2023-08-01T02:48:20;7.43;;;3.10;;
55641;SDS011;41509;53.108;6.100;2023-08-01T02:50:46;10.85;;;3.33;;
55641;SDS011;41509;53.108;6.100;2023-08-01T02:53:12;9.57;;;2.95;;
55641;SDS011;41509;53.108;6.100;2023-08-01T02:55:38;6.32;;;2.45;;
55641;SDS011;41509;53.108;6.100;2023-08-01T02:58:04;7.60;;;2.83;;
55641;SDS011;41509;53.108;6.100;2023-08-01T03:00:30;6.13;;;2.15;;
55641;SDS011;41509;53.108;6.100;2023-08-01T03:02:57;6.53;;;1.90;;
55641;SDS011;41509;53.108;6.100;2023-08-01T03:05:22;6.55;;;2.30;;
55641;SDS011;41509;53.108;6.100;2023-08-01T03:07:48;10.77;;;2.78;;
55641;SDS011;41509;53.108;6.100;2023-08-01T03:10:14;4.82;;;1.52;;
55641;SDS011;41509;53.108;6.100;2023-08-01T03:12:39;7.15;;;1.88;;
55641;SDS011;41509;53.108;6.100;2023-08-01T03:15:05;8.35;;;2.05;;
55641;SDS011;41509;53.108;6.100;2023-08-01T03:17:34;6.85;;;1.95;;
55641;SDS011;41509;53.108;6.100;2023-08-01T03:19:59;6.13;;;1.92;;
55641;SDS011;41509;53.108;6.100;2023-08-01T03:22:25;5.40;;;1.75;;
55641;SDS011;41509;53.108;6.100;2023-08-01T03:24:51;6.20;;;1.45;;
55641;SDS011;41509;53.108;6.100;2023-08-01T03:27:16;9.68;;;1.83;;
55641;SDS011;41509;53.108;6.100;2023-08-01T03:29:42;7.20;;;2.10;;
55641;SDS011;41509;53.108;6.100;2023-08-01T03:32:08;4.07;;;1.65;;
55641;SDS011;41509;53.108;6.100;2023-08-01T03:34:34;5.78;;;1.35;;
55641;SDS011;41509;53.108;6.100;2023-08-01T03:36:59;7.20;;;2.50;;
55641;SDS011;41509;53.108;6.100;2023-08-01T03:39:25;5.10;;;1.65;;
55641;SDS011;41509;53.108;6.100;2023-08-01T03:41:51;7.38;;;1.80;;
55641;SDS011;41509;53.108;6.100;2023-08-01T03:44:16;3.60;;;1.65;;
55641;SDS011;41509;53.108;6.100;2023-08-01T03:46:42;9.18;;;1.88;;
55641;SDS011;41509;53.108;6.100;2023-08-01T03:49:08;2.88;;;1.08;;
55641;SDS011;41509;53.108;6.100;2023-08-01T03:51:34;5.50;;;1.35;;
55641;SDS011;41509;53.108;6.100;2023-08-01T03:54:00;4.40;;;1.30;;
55641;SDS011;41509;53.108;6.100;2023-08-01T03:56:26;5.85;;;1.20;;
55641;SDS011;41509;53.108;6.100;2023-08-01T03:58:52;10.10;;;1.55;;
55641;SDS011;41509;53.108;6.100;2023-08-01T04:01:18;1.70;;;0.68;;
55641;SDS011;41509;53.108;6.100;2023-08-01T04:06:10;6.78;;;1.15;;
55641;SDS011;41509;53.108;6.100;2023-08-01T04:08:40;6.30;;;0.90;;
55641;SDS011;41509;53.108;6.100;2023-08-01T04:11:06;5.03;;;1.58;;
55641;SDS011;41509;53.108;6.100;2023-08-01T04:13:31;4.30;;;0.85;;
55641;SDS011;41509;53.108;6.100;2023-08-01T04:15:57;4.10;;;0.80;;
55641;SDS011;41509;53.108;6.100;2023-08-01T04:18:23;3.35;;;0.77;;
55641;SDS011;41509;53.108;6.100;2023-08-01T04:20:48;2.90;;;0.63;;
55641;SDS011;41509;53.108;6.100;2023-08-01T04:23:14;3.58;;;1.02;;
55641;SDS011;41509;53.108;6.100;2023-08-01T04:25:40;1.55;;;0.65;;
55641;SDS011;41509;53.108;6.100;2023-08-01T04:28:06;3.90;;;1.50;;
55641;SDS011;41509;53.108;6.100;2023-08-01T04:30:32;4.88;;;0.93;;
55641;SDS011;41509;53.108;6.100;2023-08-01T04:32:58;4.28;;;0.93;;
55641;SDS011;41509;53.108;6.100;2023-08-01T04:35:24;2.45;;;0.80;;
55641;SDS011;41509;53.108;6.100;2023-08-01T04:37:49;3.70;;;0.98;;
55641;SDS011;41509;53.108;6.100;2023-08-01T04:40:15;6.57;;;1.00;;
55641;SDS011;41509;53.108;6.100;2023-08-01T04:45:07;2.65;;;0.73;;
55641;SDS011;41509;53.108;6.100;2023-08-01T04:47:33;2.70;;;1.13;;
55641;SDS011;41509;53.108;6.100;2023-08-01T04:50:00;2.88;;;0.90;;
55641;SDS011;41509;53.108;6.100;2023-08-01T04:52:26;3.60;;;0.90;;
55641;SDS011;41509;53.108;6.100;2023-08-01T04:54:51;6.07;;;1.00;;
55641;SDS011;41509;53.108;6.100;2023-08-01T04:57:17;3.42;;;1.00;;
55641;SDS011;41509;53.108;6.100;2023-08-01T04:59:42;3.05;;;1.45;;
55641;SDS011;41509;53.108;6.100;2023-08-01T05:02:08;1.73;;;0.90;;
55641;SDS011;41509;53.108;6.100;2023-08-01T05:04:34;5.50;;;1.15;;
55641;SDS011;41509;53.108;6.100;2023-08-01T05:06:59;2.38;;;0.88;;
55641;SDS011;41509;53.108;6.100;2023-08-01T05:09:25;4.00;;;1.55;;
55641;SDS011;41509;53.108;6.100;2023-08-01T05:11:51;3.85;;;1.52;;
55641;SDS011;41509;53.108;6.100;2023-08-01T05:14:16;6.25;;;1.80;;
55641;SDS011;41509;53.108;6.100;2023-08-01T05:16:42;3.35;;;1.30;;
55641;SDS011;41509;53.108;6.100;2023-08-01T05:19:08;5.03;;;1.60;;
55641;SDS011;41509;53.108;6.100;2023-08-01T05:21:33;6.43;;;1.83;;
55641;SDS011;41509;53.108;6.100;2023-08-01T05:23:59;4.05;;;1.02;;
55641;SDS011;41509;53.108;6.100;2023-08-01T05:26:25;7.13;;;1.85;;
55641;SDS011;41509;53.108;6.100;2023-08-01T05:28:50;8.80;;;1.77;;
55641;SDS011;41509;53.108;6.100;2023-08-01T05:31:16;2.85;;;1.25;;
55641;SDS011;41509;53.108;6.100;2023-08-01T05:33:42;2.80;;;1.30;;
55641;SDS011;41509;53.108;6.100;2023-08-01T05:36:07;5.53;;;1.98;;
55641;SDS011;41509;53.108;6.100;2023-08-01T05:38:33;2.70;;;1.50;;
55641;SDS011;41509;53.108;6.100;2023-08-01T05:40:58;6.72;;;1.75;;
55641;SDS011;41509;53.108;6.100;2023-08-01T05:43:24;2.95;;;1.23;;
55641;SDS011;41509;53.108;6.100;2023-08-01T05:45:50;3.72;;;1.30;;
55641;SDS011;41509;53.108;6.100;2023-08-01T05:48:15;3.17;;;1.30;;
55641;SDS011;41509;53.108;6.100;2023-08-01T05:50:44;5.05;;;1.13;;
55641;SDS011;41509;53.108;6.100;2023-08-01T05:53:09;3.05;;;0.93;;
55641;SDS011;41509;53.108;6.100;2023-08-01T05:55:36;2.42;;;0.82;;
55641;SDS011;41509;53.108;6.100;2023-08-01T05:58:04;4.43;;;1.27;;
55641;SDS011;41509;53.108;6.100;2023-08-01T06:00:30;3.45;;;0.98;;
55641;SDS011;41509;53.108;6.100;2023-08-01T06:02:56;5.20;;;1.50;;
55641;SDS011;41509;53.108;6.100;2023-08-01T06:05:22;4.57;;;0.93;;
55641;SDS011;41509;53.108;6.100;2023-08-01T06:07:47;5.80;;;1.08;;
55641;SDS011;41509;53.108;6.100;2023-08-01T06:10:13;2.28;;;0.75;;
55641;SDS011;41509;53.108;6.100;2023-08-01T06:12:39;4.85;;;1.10;;
55641;SDS011;41509;53.108;6.100;2023-08-01T06:15:04;3.90;;;0.77;;
55641;SDS011;41509;53.108;6.100;2023-08-01T06:17:30;4.00;;;1.02;;
55641;SDS011;41509;53.108;6.100;2023-08-01T06:19:56;6.70;;;0.82;;
55641;SDS011;41509;53.108;6.100;2023-08-01T06:22:22;3.95;;;1.33;;
55641;SDS011;41509;53.108;6.100;2023-08-01T06:24:47;5.03;;;0.80;;
55641;SDS011;41509;53.108;6.100;2023-08-01T06:27:13;6.63;;;1.17;;
55641;SDS011;41509;53.108;6.100;2023-08-01T06:29:40;4.28;;;0.70;;
55641;SDS011;41509;53.108;6.100;2023-08-01T06:32:06;11.15;;;0.90;;
55641;SDS011;41509;53.108;6.100;2023-08-01T06:34:31;7.15;;;0.90;;
55641;SDS011;41509;53.108;6.100;2023-08-01T06:36:57;4.35;;;0.60;;
55641;SDS011;41509;53.108;6.100;2023-08-01T06:39:23;2.95;;;0.73;;
55641;SDS011;41509;53.108;6.100;2023-08-01T06:41:48;7.68;;;0.80;;
55641;SDS011;41509;53.108;6.100;2023-08-01T06:44:14;5.25;;;0.50;;
55641;SDS011;41509;53.108;6.100;2023-08-01T06:46:40;3.20;;;1.15;;
55641;SDS011;41509;53.108;6.100;2023-08-01T06:49:05;6.10;;;0.77;;
55641;SDS011;41509;53.108;6.100;2023-08-01T06:51:31;4.10;;;0.68;;
55641;SDS011;41509;53.108;6.100;2023-08-01T06:53:59;8.57;;;1.13;;
55641;SDS011;41509;53.108;6.100;2023-08-01T06:56:24;3.45;;;0.63;;
55641;SDS011;41509;53.108;6.100;2023-08-01T06:58:50;3.40;;;0.50;;
55641;SDS011;41509;53.108;6.100;2023-08-01T07:01:16;5.18;;;0.55;;
55641;SDS011;41509;53.108;6.100;2023-08-01T07:03:41;7.70;;;0.73;;
55641;SDS011;41509;53.108;6.100;2023-08-01T07:06:07;3.50;;;0.90;;
55641;SDS011;41509;53.108;6.100;2023-08-01T07:08:33;1.58;;;0.40;;
55641;SDS011;41509;53.108;6.100;2023-08-01T07:10:59;6.35;;;1.08;;
55641;SDS011;41509;53.108;6.100;2023-08-01T07:13:25;6.50;;;0.65;;
55641;SDS011;41509;53.108;6.100;2023-08-01T07:15:50;4.95;;;0.80;;
55641;SDS011;41509;53.108;6.100;2023-08-01T07:18:16;2.28;;;0.80;;
55641;SDS011;41509;53.108;6.100;2023-08-01T07:20:42;6.75;;;1.13;;
55641;SDS011;41509;53.108;6.100;2023-08-01T07:23:07;3.15;;;0.77;;
55641;SDS011;41509;53.108;6.100;2023-08-01T07:25:33;6.20;;;1.30;;
55641;SDS011;41509;53.108;6.100;2023-08-01T07:27:59;4.10;;;0.73;;
55641;SDS011;41509;53.108;6.100;2023-08-01T07:30:24;4.07;;;1.00;;
55641;SDS011;41509;53.108;6.100;2023-08-01T07:32:50;4.57;;;0.95;;
55641;SDS011;41509;53.108;6.100;2023-08-01T07:35:16;2.35;;;0.80;;
55641;SDS011;41509;53.108;6.100;2023-08-01T07:37:41;8.60;;;1.38;;
55641;SDS011;41509;53.108;6.100;2023-08-01T07:40:07;2.67;;;1.00;;
55641;SDS011;41509;53.108;6.100;2023-08-01T07:42:33;5.13;;;1.00;;
55641;SDS011;41509;53.108;6.100;2023-08-01T07:44:59;4.05;;;1.13;;
55641;SDS011;41509;53.108;6.100;2023-08-01T07:47:25;3.38;;;1.10;;
55641;SDS011;41509;53.108;6.100;2023-08-01T07:49:51;10.65;;;1.20;;
55641;SDS011;41509;53.108;6.100;2023-08-01T07:52:16;4.10;;;1.23;;
55641;SDS011;41509;53.108;6.100;2023-08-01T07:54:42;6.53;;;1.00;;
55641;SDS011;41509;53.108;6.100;2023-08-01T07:57:08;2.83;;;0.75;;
55641;SDS011;41509;53.108;6.100;2023-08-01T07:59:33;5.55;;;0.88;;
55641;SDS011;41509;53.108;6.100;2023-08-01T08:01:59;2.13;;;1.02;;
55641;SDS011;41509;53.108;6.100;2023-08-01T08:04:25;6.97;;;0.85;;
55641;SDS011;41509;53.108;6.100;2023-08-01T08:06:51;4.93;;;0.68;;
55641;SDS011;41509;53.108;6.100;2023-08-01T08:09:17;3.92;;;1.00;;
55641;SDS011;41509;53.108;6.100;2023-08-01T08:11:43;6.78;;;2.13;;
55641;SDS011;41509;53.108;6.100;2023-08-01T08:14:09;7.15;;;0.73;;
55641;SDS011;41509;53.108;6.100;2023-08-01T08:16:36;6.00;;;0.88;;
55641;SDS011;41509;53.108;6.100;2023-08-01T08:19:02;9.50;;;1.38;;
55641;SDS011;41509;53.108;6.100;2023-08-01T08:21:27;3.65;;;0.93;;
55641;SDS011;41509;53.108;6.100;2023-08-01T08:23:53;5.80;;;1.10;;
55641;SDS011;41509;53.108;6.100;2023-08-01T08:26:20;6.30;;;1.40;;
55641;SDS011;41509;53.108;6.100;2023-08-01T08:28:46;3.65;;;0.88;;
55641;SDS011;41509;53.108;6.100;2023-08-01T08:31:12;5.18;;;1.02;;
55641;SDS011;41509;53.108;6.100;2023-08-01T08:33:38;2.75;;;0.98;;
55641;SDS011;41509;53.108;6.100;2023-08-01T08:36:03;2.72;;;0.88;;
55641;SDS011;41509;53.108;6.100;2023-08-01T08:38:29;4.53;;;0.80;;
55641;SDS011;41509;53.108;6.100;2023-08-01T08:40:57;2.10;;;0.55;;
55641;SDS011;41509;53.108;6.100;2023-08-01T08:43:34;6.10;;;0.95;;
55641;SDS011;41509;53.108;6.100;2023-08-01T08:46:01;4.75;;;1.17;;
55641;SDS011;41509;53.108;6.100;2023-08-01T08:48:28;2.03;;;0.90;;
55641;SDS011;41509;53.108;6.100;2023-08-01T08:50:54;3.75;;;0.95;;
55641;SDS011;41509;53.108;6.100;2023-08-01T08:53:22;3.65;;;1.00;;
55641;SDS011;41509;53.108;6.100;2023-08-01T08:55:50;6.63;;;1.35;;
55641;SDS011;41509;53.108;6.100;2023-08-01T08:58:16;5.32;;;0.90;;
55641;SDS011;41509;53.108;6.100;2023-08-01T09:03:08;1.85;;;0.65;;
55641;SDS011;41509;53.108;6.100;2023-08-01T09:05:44;4.32;;;0.70;;
55641;SDS011;41509;53.108;6.100;2023-08-01T09:08:18;5.57;;;0.75;;
55641;SDS011;41509;53.108;6.100;2023-08-01T09:10:46;2.00;;;0.70;;
55641;SDS011;41509;53.108;6.100;2023-08-01T09:13:13;2.08;;;0.60;;
55641;SDS011;41509;53.108;6.100;2023-08-01T09:15:42;2.50;;;0.77;;
55641;SDS011;41509;53.108;6.100;2023-08-01T09:18:08;4.13;;;0.98;;
55641;SDS011;41509;53.108;6.100;2023-08-01T09:20:47;3.10;;;0.70;;
55641;SDS011;41509;53.108;6.100;2023-08-01T09:23:14;3.67;;;0.90;;
55641;SDS011;41509;53.108;6.100;2023-08-01T09:25:41;4.47;;;1.13;;
55641;SDS011;41509;53.108;6.100;2023-08-01T09:30:49;7.90;;;1.38;;
55641;SDS011;41509;53.108;6.100;2023-08-01T09:33:16;4.88;;;1.65;;
55641;SDS011;41509;53.108;6.100;2023-08-01T09:38:10;4.70;;;1.02;;
55641;SDS011;41509;53.108;6.100;2023-08-01T09:40:37;2.10;;;1.00;;
55641;SDS011;41509;53.108;6.100;2023-08-01T09:43:03;3.40;;;1.17;;
55641;SDS011;41509;53.108;6.100;2023-08-01T09:45:29;4.35;;;1.30;;
55641;SDS011;41509;53.108;6.100;2023-08-01T09:47:55;4.13;;;1.63;;
55641;SDS011;41509;53.108;6.100;2023-08-01T09:50:21;6.82;;;1.98;;
55641;SDS011;41509;53.108;6.100;2023-08-01T09:52:48;6.65;;;1.83;;
55641;SDS011;41509;53.108;6.100;2023-08-01T09:55:32;3.72;;;1.63;;
55641;SDS011;41509;53.108;6.100;2023-08-01T09:57:58;7.10;;;1.95;;
55641;SDS011;41509;53.108;6.100;2023-08-01T10:00:28;7.80;;;1.60;;
55641;SDS011;41509;53.108;6.100;2023-08-01T10:02:58;7.70;;;1.90;;
55641;SDS011;41509;53.108;6.100;2023-08-01T10:05:32;6.72;;;1.60;;
55641;SDS011;41509;53.108;6.100;2023-08-01T10:08:01;11.65;;;1.67;;
55641;SDS011;41509;53.108;6.100;2023-08-01T10:10:29;4.72;;;1.60;;
55641;SDS011;41509;53.108;6.100;2023-08-01T10:12:56;5.85;;;1.95;;
55641;SDS011;41509;53.108;6.100;2023-08-01T10:15:25;4.97;;;1.75;;
55641;SDS011;41509;53.108;6.100;2023-08-01T10:17:53;5.13;;;1.70;;
55641;SDS011;41509;53.108;6.100;2023-08-01T10:20:19;6.00;;;1.90;;
55641;SDS011;41509;53.108;6.100;2023-08-01T10:22:48;5.13;;;2.00;;
55641;SDS011;41509;53.108;6.100;2023-08-01T10:25:16;4.18;;;1.27;;
55641;SDS011;41509;53.108;6.100;2023-08-01T10:27:56;6.45;;;1.38;;
55641;SDS011;41509;53.108;6.100;2023-08-01T10:30:25;6.80;;;1.35;;
55641;SDS011;41509;53.108;6.100;2023-08-01T10:32:54;3.60;;;0.90;;
55641;SDS011;41509;53.108;6.100;2023-08-01T10:35:31;6.78;;;1.23;;
55641;SDS011;41509;53.108;6.100;2023-08-01T10:38:04;5.28;;;1.00;;
55641;SDS011;41509;53.108;6.100;2023-08-01T10:40:39;4.63;;;1.13;;
55641;SDS011;41509;53.108;6.100;2023-08-01T10:43:25;5.10;;;1.00;;
55641;SDS011;41509;53.108;6.100;2023-08-01T10:46:01;7.82;;;0.90;;
55641;SDS011;41509;53.108;6.100;2023-08-01T10:48:30;4.75;;;1.52;;
55641;SDS011;41509;53.108;6.100;2023-08-01T10:50:56;6.57;;;0.90;;
55641;SDS011;41509;53.108;6.100;2023-08-01T10:53:25;3.08;;;1.00;;
55641;SDS011;41509;53.108;6.100;2023-08-01T10:55:51;5.88;;;0.98;;
55641;SDS011;41509;53.108;6.100;2023-08-01T10:58:17;6.70;;;1.02;;
55641;SDS011;41509;53.108;6.100;2023-08-01T11:00:43;2.88;;;0.73;;
55641;SDS011;41509;53.108;6.100;2023-08-01T11:03:09;3.70;;;0.80;;
55641;SDS011;41509;53.108;6.100;2023-08-01T11:05:34;4.03;;;0.93;;
55641;SDS011;41509;53.108;6.100;2023-08-01T11:08:01;4.47;;;0.70;;
55641;SDS011;41509;53.108;6.100;2023-08-01T11:10:28;2.78;;;0.70;;
55641;SDS011;41509;53.108;6.100;2023-08-01T11:12:55;8.15;;;1.17;;
55641;SDS011;41509;53.108;6.100;2023-08-01T11:15:21;4.55;;;1.00;;
55641;SDS011;41509;53.108;6.100;2023-08-01T11:17:48;2.45;;;0.90;;
55641;SDS011;41509;53.108;6.100;2023-08-01T11:20:18;4.43;;;0.70;;
55641;SDS011;41509;53.108;6.100;2023-08-01T11:25:40;4.20;;;1.20;;
55641;SDS011;41509;53.108;6.100;2023-08-01T11:28:11;6.25;;;1.20;;
55641;SDS011;41509;53.108;6.100;2023-08-01T11:30:41;7.05;;;1.35;;
55641;SDS011;41509;53.108;6.100;2023-08-01T11:33:14;6.35;;;1.20;;
55641;SDS011;41509;53.108;6.100;2023-08-01T11:35:40;10.13;;;1.23;;
55641;SDS011;41509;53.108;6.100;2023-08-01T11:38:07;5.72;;;1.48;;
55641;SDS011;41509;53.108;6.100;2023-08-01T11:40:32;6.97;;;1.17;;
55641;SDS011;41509;53.108;6.100;2023-08-01T11:42:59;6.13;;;1.25;;
55641;SDS011;41509;53.108;6.100;2023-08-01T11:45:24;7.53;;;1.27;;
55641;SDS011;41509;53.108;6.100;2023-08-01T11:47:51;3.22;;;1.10;;
55641;SDS011;41509;53.108;6.100;2023-08-01T11:50:23;5.03;;;1.30;;
55641;SDS011;41509;53.108;6.100;2023-08-01T11:52:51;7.05;;;1.02;;
55641;SDS011;41509;53.108;6.100;2023-08-01T11:55:21;3.97;;;0.88;;
55641;SDS011;41509;53.108;6.100;2023-08-01T11:57:54;4.25;;;1.10;;
55641;SDS011;41509;53.108;6.100;2023-08-01T12:00:28;3.92;;;1.30;;
55641;SDS011;41509;53.108;6.100;2023-08-01T12:03:04;9.32;;;1.33;;
55641;SDS011;41509;53.108;6.100;2023-08-01T12:05:38;3.30;;;1.30;;
55641;SDS011;41509;53.108;6.100;2023-08-01T12:08:12;4.47;;;1.05;;
55641;SDS011;41509;53.108;6.100;2023-08-01T12:10:43;9.02;;;1.17;;
55641;SDS011;41509;53.108;6.100;2023-08-01T12:13:20;3.60;;;1.10;;
55641;SDS011;41509;53.108;6.100;2023-08-01T12:15:50;6.03;;;1.38;;
55641;SDS011;41509;53.108;6.100;2023-08-01T12:18:21;3.22;;;1.15;;
55641;SDS011;41509;53.108;6.100;2023-08-01T12:20:51;6.57;;;1.25;;
55641;SDS011;41509;53.108;6.100;2023-08-01T12:23:17;5.78;;;1.33;;
55641;SDS011;41509;53.108;6.100;2023-08-01T12:28:09;6.35;;;1.33;;
55641;SDS011;41509;53.108;6.100;2023-08-01T12:30:35;3.53;;;1.05;;
55641;SDS011;41509;53.108;6.100;2023-08-01T12:33:01;7.57;;;1.20;;
55641;SDS011;41509;53.108;6.100;2023-08-01T12:35:27;5.28;;;1.10;;
55641;SDS011;41509;53.108;6.100;2023-08-01T12:37:53;4.07;;;1.08;;
55641;SDS011;41509;53.108;6.100;2023-08-01T12:40:19;6.07;;;1.23;;
55641;SDS011;41509;53.108;6.100;2023-08-01T12:42:44;2.88;;;0.90;;
55641;SDS011;41509;53.108;6.100;2023-08-01T12:45:11;6.65;;;1.40;;
55641;SDS011;41509;53.108;6.100;2023-08-01T12:47:37;5.45;;;1.27;;
55641;SDS011;41509;53.108;6.100;2023-08-01T12:50:02;6.55;;;1.13;;
55641;SDS011;41509;53.108;6.100;2023-08-01T12:52:28;7.82;;;1.75;;
55641;SDS011;41509;53.108;6.100;2023-08-01T12:54:54;4.40;;;1.40;;
55641;SDS011;41509;53.108;6.100;2023-08-01T12:57:20;4.35;;;1.60;;
55641;SDS011;41509;53.108;6.100;2023-08-01T12:59:45;4.30;;;1.27;;
55641;SDS011;41509;53.108;6.100;2023-08-01T13:02:11;7.30;;;1.40;;
55641;SDS011;41509;53.108;6.100;2023-08-01T13:04:37;7.93;;;1.40;;
55641;SDS011;41509;53.108;6.100;2023-08-01T13:07:03;5.72;;;1.10;;
55641;SDS011;41509;53.108;6.100;2023-08-01T13:09:29;5.30;;;1.52;;
55641;SDS011;41509;53.108;6.100;2023-08-01T13:11:55;2.97;;;1.30;;
55641;SDS011;41509;53.108;6.100;2023-08-01T13:14:21;5.15;;;1.10;;
55641;SDS011;41509;53.108;6.100;2023-08-01T13:16:48;4.20;;;1.08;;
55641;SDS011;41509;53.108;6.100;2023-08-01T13:19:13;2.58;;;0.75;;
55641;SDS011;41509;53.108;6.100;2023-08-01T13:21:39;4.35;;;1.17;;
55641;SDS011;41509;53.108;6.100;2023-08-01T13:24:05;4.00;;;1.00;;
55641;SDS011;41509;53.108;6.100;2023-08-01T13:26:31;5.18;;;1.17;;
55641;SDS011;41509;53.108;6.100;2023-08-01T13:28:57;5.38;;;1.70;;
55641;SDS011;41509;53.108;6.100;2023-08-01T13:31:24;8.05;;;1.40;;
55641;SDS011;41509;53.108;6.100;2023-08-01T13:33:50;4.35;;;1.10;;
55641;SDS011;41509;53.108;6.100;2023-08-01T13:36:19;4.55;;;1.05;;
55641;SDS011;41509;53.108;6.100;2023-08-01T13:38:45;5.90;;;1.13;;
55641;SDS011;41509;53.108;6.100;2023-08-01T13:41:10;5.70;;;1.00;;
55641;SDS011;41509;53.108;6.100;2023-08-01T13:43:36;5.85;;;1.45;;
55641;SDS011;41509;53.108;6.100;2023-08-01T13:46:15;4.43;;;1.08;;
55641;SDS011;41509;53.108;6.100;2023-08-01T13:48:45;3.85;;;1.00;;
55641;SDS011;41509;53.108;6.100;2023-08-01T13:51:11;3.65;;;1.20;;
55641;SDS011;41509;53.108;6.100;2023-08-01T13:56:09;3.45;;;0.90;;
55641;SDS011;41509;53.108;6.100;2023-08-01T13:58:35;3.00;;;1.00;;
55641;SDS011;41509;53.108;6.100;2023-08-01T14:01:03;8.75;;;1.60;;
55641;SDS011;41509;53.108;6.100;2023-08-01T14:03:33;3.20;;;0.98;;
55641;SDS011;41509;53.108;6.100;2023-08-01T14:06:06;6.93;;;1.08;;
55641;SDS011;41509;53.108;6.100;2023-08-01T14:08:32;2.35;;;0.80;;
55641;SDS011;41509;53.108;6.100;2023-08-01T14:10:58;3.30;;;0.82;;
55641;SDS011;41509;53.108;6.100;2023-08-01T14:13:24;5.15;;;0.98;;
55641;SDS011;41509;53.108;6.100;2023-08-01T14:15:50;3.70;;;1.10;;
55641;SDS011;41509;53.108;6.100;2023-08-01T14:20:42;4.15;;;1.10;;
55641;SDS011;41509;53.108;6.100;2023-08-01T14:23:07;6.13;;;1.48;;
55641;SDS011;41509;53.108;6.100;2023-08-01T14:27:59;4.10;;;1.17;;
55641;SDS011;41509;53.108;6.100;2023-08-01T14:30:25;6.18;;;1.10;;
55641;SDS011;41509;53.108;6.100;2023-08-01T14:32:58;5.43;;;1.17;;
55641;SDS011;41509;53.108;6.100;2023-08-01T14:35:27;4.25;;;1.27;;
55641;SDS011;41509;53.108;6.100;2023-08-01T14:37:53;4.38;;;1.40;;
55641;SDS011;41509;53.108;6.100;2023-08-01T14:40:20;5.78;;;1.58;;
55641;SDS011;41509;53.108;6.100;2023-08-01T14:42:47;6.93;;;1.48;;
55641;SDS011;41509;53.108;6.100;2023-08-01T14:45:12;5.85;;;1.42;;
55641;SDS011;41509;53.108;6.100;2023-08-01T14:47:39;3.63;;;1.05;;
55641;SDS011;41509;53.108;6.100;2023-08-01T14:50:06;4.82;;;1.30;;
55641;SDS011;41509;53.108;6.100;2023-08-01T14:52:32;2.60;;;1.33;;
55641;SDS011;41509;53.108;6.100;2023-08-01T14:54:57;6.60;;;1.60;;
55641;SDS011;41509;53.108;6.100;2023-08-01T14:57:23;6.35;;;2.00;;
55641;SDS011;41509;53.108;6.100;2023-08-01T14:59:49;6.57;;;1.40;;
55641;SDS011;41509;53.108;6.100;2023-08-01T15:02:14;10.18;;;2.15;;
55641;SDS011;41509;53.108;6.100;2023-08-01T15:04:41;6.63;;;1.50;;
55641;SDS011;41509;53.108;6.100;2023-08-01T15:07:06;4.82;;;1.17;;
55641;SDS011;41509;53.108;6.100;2023-08-01T15:09:32;3.70;;;1.60;;
55641;SDS011;41509;53.108;6.100;2023-08-01T15:11:58;5.97;;;1.30;;
55641;SDS011;41509;53.108;6.100;2023-08-01T15:14:25;4.50;;;1.30;;